• Join FlightAware (Why Join?)
  • Login
  • US Flag 
02:52AM EDT


 

Airport Tracker/Info


-or-


 

Live Flight TrackerFlight Track Log ✈ SWA3228 ✈ 31-May-2013 ✈ KMDW - KCLE

Flight Track Log - Related Links

Times and Time Zones

All times are in EDT time to prevent confusion due to time zone crossing. See the SWA3228 flight status page for this flight to view local times or setup timezone preferences in your user account.

Time Position Orientation Groundspeed Altitude Reporting Facility
EDT Latitude Longitude Course Direction KTS MPH feet Rate Location/Type
12:40PM 41.7667 -87.7833 340° North 150 173 2,000  Level Chicago TRACON
12:41PM 41.8000 -87.8000 340° North 248 285 3,100 720 Climbing Chicago TRACON
12:42PM 41.8097 -87.7417 77° East 241 277 3,200 1,200 Climbing Chicago Center
12:43PM 41.7975 -87.6464 100° East 248 285 5,300 3,120 Climbing Chicago Center
12:44PM 41.8192 -87.5333 76° East 309 356 9,700 4,080 Climbing Chicago Center
12:45PM 41.8078 -87.4219 98° East 301 346 13,800 3,780 Climbing Chicago Center
12:46PM 41.7872 -87.2636 100° East 359 413 17,600 3,420 Climbing Chicago Center
12:47PM 41.7694 -87.1281 100° East 368 423 20,900 2,580 Climbing Chicago Center
12:48PM 41.7608 -86.9783 94° East 398 458 23,000 2,040 Climbing Chicago Center
12:49PM 41.7644 -86.8197 88° East 425 489 25,200 2,280 Climbing Chicago Center
12:50PM 41.7656 -86.6461 89° East 438 504 27,800 2,580 Climbing Chicago Center
12:51PM 41.7672 -86.4808 89° East 443 510 30,600 1,500 Climbing Chicago Center
12:52PM 41.7689 -86.3144 89° East 446 513 31,000 180 Climbing Chicago Center
12:53PM 41.7883 -86.1372 82° East 480 552 31,000  Level Chicago Center
12:54PM 41.8083 -85.9564 82° East 489 563 31,000  Level Chicago Center
12:55PM 41.8311 -85.7406 82° East 485 558 31,000  Level Chicago Center
12:56PM 41.8503 -85.5603 82° East 482 555 31,000  Level Chicago Center
12:57PM 41.8692 -85.3797 82° East 482 555 31,000  Level Chicago Center
12:58PM 41.8875 -85.2000 82° East 481 554 31,000  Level Chicago Center
12:59PM 41.9056 -85.0206 82° East 483 556 31,000  Level Chicago Center
01:00PM 41.9228 -84.8436 82° East 479 551 31,000  Level Chicago Center
01:01PM 41.9394 -84.6661 83° East 479 551 31,000  Level Chicago Center
01:02PM 41.9606 -84.4522 82° East 485 558 31,000 -180 Level Chicago Center
01:03PM 41.9772 -84.2844 82° East 478 550 30,700 -660 Descending Cleveland Center
01:04PM 41.9844 -84.1283 86° East 473 544 29,800 -960 Descending Cleveland Center
01:05PM 42.0019 -83.9561 82° East 468 539 28,800 -1,020 Descending Cleveland Center
01:06PM 42.0175 -83.7864 83° East 461 531 27,800 -1,320 Descending Cleveland Center
01:07PM 42.0322 -83.6192 83° East 456 525 26,200 -1,620 Descending Cleveland Center
01:08PM 42.0428 -83.4575 85° East 441 507 24,600 -1,320 Descending Cleveland Center
01:09PM 42.0300 -83.2975 96° East 441 507 23,600 -4,800 Descending Cleveland Center
01:10PM 42.0147 -83.1403 97° East 434 499 15,000 -1,500 Descending Cleveland Center
01:11PM 41.9994 -82.9889 98° East 421 484 20,700 2,340 Climbing Cleveland Center
01:12PM 41.9856 -82.8403 97° East 406 467 19,700 -1,560 Descending Cleveland Center
01:13PM 41.9717 -82.7003 98° East 396 456 17,600 -2,220 Descending Cleveland Center
01:14PM 41.9575 -82.5572 98° East 385 443 15,300 -2,460 Descending Cleveland Center
01:15PM 41.9319 -82.4672 111° Southeast 360 414 13,700 -2,280 Descending Cleveland Center
01:15PM 41.9219 -82.4389 115° Southeast 351 404 13,200 -2,100 Descending Cleveland Center
01:16PM 41.8803 -82.3122 114° Southeast 341 392 11,000 -1,620 Descending Cleveland Center
01:17PM 41.8275 -82.2189 127° Southeast 299 344 10,000 -1,020 Descending Cleveland Center
01:18PM 41.7719 -82.1533 139° Southeast 300 345 9,000 -1,320 Descending Cleveland Center
01:19PM 41.7083 -82.0850 141° Southeast 275 316 7,400 -1,500 Descending Cleveland Center
01:20PM 41.6528 -82.0200 139° Southeast 270 311 6,100 -1,440 Descending Cleveland Center
01:21PM 41.5975 -81.9492 136° Southeast 269 310 4,600 -1,500 Descending Cleveland Center
01:22PM 41.5439 -81.8814 137° Southeast 269 310 3,100 -720 Descending Cleveland Center
01:24PM 41.5053 -81.8058 124° Southeast 196 226 3,100 -480 Level Cleveland Center
01:25PM 41.4700 -81.7886 160° South 125 144 2,100 -780 Descending Cleveland Center
01:26PM 41.4364 -81.8128 208° Southwest 131 151 1,500 -600 Descending Cleveland Center
01:27PM 41.4153 -81.8458 230° Southwest 125 144 900 -660 Descending Cleveland Center
01:29PM 41.4000 -81.8500 153° Southeast  Level FlightAware Approximate